createdAt,value
2018-10-19T00:00:54.249Z,49.33
2018-10-19T00:03:21.929Z,48.55
2018-10-19T00:05:49.598Z,42.90
2018-10-19T00:08:17.252Z,39.83
2018-10-19T00:10:51.633Z,40.58
2018-10-19T00:13:19.296Z,41.02
2018-10-19T00:15:47.002Z,45.12
2018-10-19T00:18:14.685Z,43.55
2018-10-19T00:20:42.367Z,45.40
2018-10-19T00:23:10.079Z,44.38
2018-10-19T00:25:37.737Z,47.70
2018-10-19T00:28:05.440Z,57.00
2018-10-19T00:30:33.189Z,57.30
2018-10-19T00:33:00.905Z,49.75
2018-10-19T00:35:28.566Z,52.43
2018-10-19T00:37:56.249Z,53.55
2018-10-19T00:40:23.920Z,55.73
2018-10-19T00:42:51.602Z,54.25
2018-10-19T00:45:23.990Z,46.85
2018-10-19T00:47:51.674Z,46.90
2018-10-19T00:50:19.357Z,46.77
2018-10-19T00:52:47.033Z,50.25
2018-10-19T00:55:14.680Z,44.27
2018-10-19T00:57:42.321Z,50.17
2018-10-19T01:00:09.993Z,47.23
2018-10-19T01:02:37.683Z,44.45
2018-10-19T01:05:05.491Z,47.93
2018-10-19T01:07:33.173Z,47.45
2018-10-19T01:10:00.809Z,51.15
2018-10-19T01:12:28.465Z,49.65
2018-10-19T01:14:56.219Z,47.30
2018-10-19T01:17:23.845Z,49.90
2018-10-19T01:19:51.521Z,45.70
2018-10-19T01:22:19.218Z,49.35
2018-10-19T01:24:46.889Z,44.67
2018-10-19T01:27:14.762Z,48.20
2018-10-19T01:29:42.379Z,57.75
2018-10-19T01:32:10.066Z,56.00
2018-10-19T01:34:37.715Z,46.15
2018-10-19T01:37:05.413Z,47.88
2018-10-19T01:39:33.089Z,52.65
2018-10-19T01:42:00.782Z,48.58
2018-10-19T01:44:28.551Z,43.70
2018-10-19T01:46:56.208Z,42.80
2018-10-19T01:49:23.913Z,47.43
2018-10-19T01:51:51.618Z,46.42
2018-10-19T01:54:19.269Z,41.73
2018-10-19T01:56:46.924Z,45.83
2018-10-19T01:59:14.653Z,42.38
2018-10-19T02:01:42.306Z,48.65
2018-10-19T02:04:10.001Z,46.85
2018-10-19T02:06:37.672Z,45.90
2018-10-19T02:09:06.681Z,48.02
2018-10-19T02:11:34.325Z,50.23
2018-10-19T02:14:02.002Z,47.48
2018-10-19T02:16:29.729Z,44.60
2018-10-19T02:18:57.393Z,49.10
2018-10-19T02:21:25.053Z,43.80
2018-10-19T02:23:52.734Z,48.55
2018-10-19T02:26:20.428Z,46.58
2018-10-19T02:28:48.086Z,44.18
2018-10-19T02:31:15.765Z,40.98
2018-10-19T02:33:43.443Z,42.58
2018-10-19T02:36:11.120Z,42.58
2018-10-19T02:38:38.798Z,39.13
2018-10-19T02:41:06.542Z,38.15
2018-10-19T02:43:34.262Z,46.48
2018-10-19T02:46:01.929Z,41.50
2018-10-19T02:48:29.590Z,41.48
2018-10-19T02:50:57.397Z,45.28
2018-10-19T02:53:24.980Z,43.10
2018-10-19T02:55:52.640Z,43.17
2018-10-19T02:58:20.334Z,40.33
2018-10-19T03:00:48.008Z,40.75
2018-10-19T03:03:15.768Z,41.50
2018-10-19T03:05:43.411Z,42.90
2018-10-19T03:08:11.105Z,42.50
2018-10-19T03:10:38.761Z,40.45
2018-10-19T03:13:06.443Z,39.75
2018-10-19T03:15:34.113Z,40.20
2018-10-19T03:18:01.797Z,39.80
2018-10-19T03:20:29.469Z,40.08
2018-10-19T03:22:57.200Z,37.83
2018-10-19T03:25:24.873Z,38.78
2018-10-19T03:27:52.533Z,41.35
2018-10-19T03:30:20.251Z,39.20
2018-10-19T03:32:47.914Z,41.18
2018-10-19T03:35:15.614Z,39.60
2018-10-19T03:37:43.282Z,41.85
2018-10-19T03:40:10.961Z,45.20
2018-10-19T03:42:38.621Z,49.65
2018-10-19T03:45:06.699Z,43.98
2018-10-19T03:47:34.456Z,47.95
2018-10-19T03:50:02.162Z,43.85
2018-10-19T03:52:29.862Z,40.78
2018-10-19T03:54:57.524Z,43.28
2018-10-19T03:57:25.180Z,47.17
2018-10-19T03:59:52.861Z,46.02
2018-10-19T04:02:20.519Z,42.30
2018-10-19T04:04:48.195Z,46.13
2018-10-19T04:07:15.896Z,45.63
2018-10-19T04:09:43.565Z,47.23
2018-10-19T04:12:11.261Z,43.92
2018-10-19T04:14:38.955Z,44.15
2018-10-19T04:17:06.691Z,45.40
2018-10-19T04:19:34.337Z,41.70
2018-10-19T04:22:02.021Z,46.80
2018-10-19T04:24:29.673Z,49.45
2018-10-19T04:26:57.436Z,45.23
2018-10-19T04:29:25.058Z,44.63
2018-10-19T04:31:52.752Z,46.90
2018-10-19T04:34:20.429Z,47.65
2018-10-19T04:36:48.160Z,45.80
2018-10-19T04:39:15.869Z,44.23
2018-10-19T04:41:43.582Z,48.05
2018-10-19T04:44:11.213Z,44.90
2018-10-19T04:46:38.914Z,43.75
2018-10-19T04:49:06.577Z,43.80
2018-10-19T04:51:34.285Z,43.73
2018-10-19T04:54:02.017Z,51.10
2018-10-19T04:56:29.729Z,43.10
2018-10-19T04:58:57.547Z,55.15
2018-10-19T05:01:25.209Z,51.85
2018-10-19T05:03:52.918Z,50.45
2018-10-19T05:06:20.614Z,56.37
2018-10-19T05:08:48.319Z,56.53
2018-10-19T05:11:16.099Z,53.13
2018-10-19T05:13:43.713Z,56.13
2018-10-19T05:16:11.404Z,50.38
2018-10-19T05:18:39.085Z,49.15
2018-10-19T05:21:06.782Z,41.23
2018-10-19T05:23:34.461Z,43.92
2018-10-19T05:26:02.191Z,41.05
2018-10-19T05:28:29.819Z,44.90
2018-10-19T05:30:57.514Z,43.25
2018-10-19T05:33:25.256Z,46.10
2018-10-19T05:35:52.914Z,49.13
2018-10-19T05:38:20.606Z,52.00
2018-10-19T05:40:48.276Z,50.48
2018-10-19T05:43:15.963Z,49.73
2018-10-19T05:45:43.609Z,51.48
2018-10-19T05:48:11.314Z,50.95
2018-10-19T05:50:39.001Z,51.83
2018-10-19T05:53:06.707Z,48.92
2018-10-19T05:55:34.402Z,57.35
2018-10-19T05:58:02.089Z,53.35
2018-10-19T06:00:29.831Z,52.73
2018-10-19T06:02:57.510Z,49.67
2018-10-19T06:05:25.220Z,56.75
2018-10-19T06:07:52.970Z,58.68
2018-10-19T06:10:20.673Z,56.55
2018-10-19T06:12:48.456Z,62.98
2018-10-19T06:15:16.204Z,67.62
2018-10-19T06:17:43.857Z,59.03
2018-10-19T06:20:11.542Z,68.00
2018-10-19T06:22:39.245Z,69.87
2018-10-19T06:25:06.984Z,75.62
2018-10-19T06:27:34.757Z,61.60
2018-10-19T06:30:02.519Z,57.48
2018-10-19T06:32:30.217Z,58.30
2018-10-19T06:34:57.900Z,65.57
2018-10-19T06:37:25.564Z,60.15
2018-10-19T06:39:53.247Z,64.72
2018-10-19T06:42:20.934Z,66.50
2018-10-19T06:44:48.642Z,66.85
2018-10-19T06:47:16.405Z,82.15
2018-10-19T06:49:44.023Z,64.82
2018-10-19T06:52:11.729Z,70.35
2018-10-19T06:54:39.418Z,66.70
2018-10-19T06:57:07.091Z,58.13
2018-10-19T06:59:34.816Z,62.98
2018-10-19T07:02:02.529Z,64.12
2018-10-19T07:04:30.186Z,60.67
2018-10-19T07:06:57.890Z,72.50
2018-10-19T07:09:25.545Z,71.97
2018-10-19T07:11:53.202Z,65.65
2018-10-19T07:14:20.882Z,55.17
2018-10-19T07:16:48.562Z,63.48
2018-10-19T07:19:16.286Z,77.50
2018-10-19T07:21:44.024Z,68.20
2018-10-19T07:24:11.633Z,62.67
2018-10-19T07:26:39.337Z,62.30
2018-10-19T07:29:07.061Z,66.35
2018-10-19T07:31:34.714Z,66.53
2018-10-19T07:34:02.425Z,71.42
2018-10-19T07:36:30.168Z,62.20
2018-10-19T07:38:57.809Z,72.47
2018-10-19T07:41:25.513Z,59.98
2018-10-19T07:43:53.175Z,59.38
2018-10-19T07:46:20.861Z,62.03
2018-10-19T07:48:48.566Z,76.80
2018-10-19T07:51:16.239Z,63.33
2018-10-19T07:53:43.896Z,61.53
2018-10-19T07:56:11.678Z,58.10
2018-10-19T07:58:39.311Z,60.98
2018-10-19T08:01:07.022Z,56.55
2018-10-19T08:03:34.696Z,58.15
2018-10-19T08:06:02.646Z,48.50
2018-10-19T08:08:30.329Z,62.00
2018-10-19T08:10:57.996Z,59.77
2018-10-19T08:13:25.669Z,60.10
2018-10-19T08:15:53.348Z,64.30
2018-10-19T08:18:21.055Z,62.60
2018-10-19T08:20:48.762Z,65.70
2018-10-19T08:23:16.444Z,67.78
2018-10-19T08:25:44.958Z,66.65
2018-10-19T08:28:12.662Z,69.15
2018-10-19T08:30:40.354Z,74.45
2018-10-19T08:33:08.049Z,74.37
2018-10-19T08:35:35.729Z,72.40
2018-10-19T08:38:10.197Z,71.25
2018-10-19T08:40:37.885Z,72.17
2018-10-19T08:43:05.919Z,74.20
2018-10-19T08:45:33.557Z,70.10
2018-10-19T08:48:01.310Z,68.78
2018-10-19T08:50:28.968Z,70.03
2018-10-19T08:52:56.665Z,84.65
2018-10-19T08:55:24.373Z,91.70
2018-10-19T08:57:52.151Z,82.75
2018-10-19T09:00:19.811Z,81.05
2018-10-19T09:02:47.481Z,95.30
2018-10-19T09:05:15.159Z,108.07
2018-10-19T09:07:42.847Z,108.17
2018-10-19T09:10:10.526Z,99.58
2018-10-19T09:12:38.335Z,92.33
2018-10-19T09:15:06.418Z,89.55
2018-10-19T09:17:34.099Z,96.42
2018-10-19T09:20:01.763Z,82.90
2018-10-19T09:22:29.438Z,80.83
2018-10-19T09:24:57.140Z,87.10
2018-10-19T09:27:24.804Z,85.47
2018-10-19T09:29:52.474Z,112.47
2018-10-19T09:32:20.174Z,89.70
2018-10-19T09:34:47.865Z,93.82
2018-10-19T09:37:15.566Z,96.05
2018-10-19T09:39:43.230Z,91.85
2018-10-19T09:42:11.105Z,90.87
2018-10-19T09:44:38.771Z,95.13
2018-10-19T09:47:06.740Z,103.00
2018-10-19T09:49:34.389Z,94.03
2018-10-19T09:52:02.105Z,95.73
2018-10-19T09:54:29.780Z,94.13
2018-10-19T09:56:57.563Z,98.70
2018-10-19T09:59:25.217Z,91.70
2018-10-19T10:01:52.899Z,91.03
2018-10-19T10:04:20.615Z,88.93
2018-10-19T10:06:48.289Z,94.03
2018-10-19T10:09:16.785Z,89.93
2018-10-19T10:11:44.513Z,81.43
2018-10-19T10:14:12.221Z,92.10
2018-10-19T10:16:39.966Z,80.83
2018-10-19T10:19:07.800Z,88.57
2018-10-19T10:21:35.493Z,75.27
2018-10-19T10:24:03.257Z,82.50
2018-10-19T10:26:30.916Z,72.13
2018-10-19T10:29:05.857Z,83.10
2018-10-19T10:31:33.541Z,73.20
2018-10-19T10:34:01.344Z,78.80
2018-10-19T10:36:29.000Z,78.23
2018-10-19T10:38:56.728Z,83.17
2018-10-19T10:41:24.448Z,69.67
2018-10-19T10:43:52.161Z,74.20
2018-10-19T10:46:19.841Z,81.63
2018-10-19T10:48:47.495Z,73.03
2018-10-19T10:51:15.175Z,76.33
2018-10-19T10:53:42.845Z,75.50
2018-10-19T10:56:10.568Z,78.83
2018-10-19T10:58:38.233Z,70.83
2018-10-19T11:01:05.979Z,70.30
2018-10-19T11:03:33.639Z,69.60
2018-10-19T11:06:01.285Z,73.73
2018-10-19T11:08:28.950Z,64.30
2018-10-19T11:11:07.554Z,66.43
2018-10-19T11:13:35.281Z,67.00
2018-10-19T11:16:03.036Z,67.07
2018-10-19T11:18:30.694Z,63.30
2018-10-19T11:21:05.100Z,60.93
2018-10-19T11:23:32.817Z,58.43
2018-10-19T11:26:00.540Z,60.63
2018-10-19T11:28:28.445Z,70.53
2018-10-19T11:30:56.177Z,64.70
2018-10-19T11:33:23.887Z,62.57
2018-10-19T11:35:51.615Z,54.80
2018-10-19T11:38:19.276Z,61.63
2018-10-19T11:40:46.973Z,60.07
2018-10-19T11:43:14.693Z,55.23
2018-10-19T11:45:42.334Z,60.70
2018-10-19T11:48:10.031Z,57.40
2018-10-19T11:50:37.688Z,61.67
2018-10-19T11:53:05.370Z,54.10
2018-10-19T11:55:33.101Z,53.03
2018-10-19T11:58:00.797Z,56.00
2018-10-19T12:00:28.478Z,56.90
2018-10-19T12:02:56.146Z,59.97
2018-10-19T12:05:23.849Z,55.30
2018-10-19T12:07:51.520Z,62.13
2018-10-19T12:10:19.200Z,53.73
2018-10-19T12:12:46.968Z,60.80
2018-10-19T12:15:15.788Z,48.47
2018-10-19T12:17:44.156Z,60.63
2018-10-19T12:20:14.048Z,51.60
2018-10-19T12:22:41.698Z,48.63
2018-10-19T12:25:10.376Z,46.20
2018-10-19T12:27:38.586Z,54.57
2018-10-19T12:30:06.809Z,47.90
2018-10-19T12:32:34.532Z,52.93
2018-10-19T12:35:02.276Z,59.97
2018-10-19T12:37:29.946Z,46.33
2018-10-19T12:39:57.652Z,51.00
2018-10-19T12:42:25.345Z,55.17
2018-10-19T12:44:53.117Z,49.63
2018-10-19T12:47:30.984Z,49.63
2018-10-19T12:49:58.612Z,48.33
2018-10-19T12:52:26.341Z,48.83
2018-10-19T12:54:54.034Z,49.50
2018-10-19T12:57:21.738Z,44.60
2018-10-19T12:59:49.420Z,51.00
2018-10-19T13:02:17.105Z,49.00
2018-10-19T13:04:44.800Z,46.27
2018-10-19T13:07:12.658Z,46.10
2018-10-19T13:09:40.803Z,49.53
2018-10-19T13:12:08.618Z,49.30
2018-10-19T13:14:36.288Z,57.43
2018-10-19T13:17:04.057Z,49.67
2018-10-19T13:19:31.786Z,46.20
2018-10-19T13:21:59.442Z,49.57
2018-10-19T13:24:27.216Z,50.23
2018-10-19T13:26:55.014Z,50.30
2018-10-19T13:29:22.713Z,45.43
2018-10-19T13:31:50.384Z,46.10
2018-10-19T13:34:18.105Z,48.40
2018-10-19T13:36:45.934Z,46.27
2018-10-19T13:39:13.965Z,41.67
2018-10-19T13:41:42.096Z,44.87
2018-10-19T13:44:10.046Z,49.60
2018-10-19T13:46:37.813Z,50.10
2018-10-19T13:49:05.748Z,44.93
2018-10-19T13:51:33.917Z,43.87
2018-10-19T13:54:01.545Z,44.30
2018-10-19T13:56:29.553Z,45.10
2018-10-19T13:58:57.263Z,42.00
2018-10-19T14:01:24.818Z,49.80
2018-10-19T14:03:52.501Z,42.93
2018-10-19T14:06:20.200Z,41.43
2018-10-19T14:08:47.948Z,40.10
2018-10-19T14:11:15.873Z,41.10
2018-10-19T14:13:43.518Z,43.20
2018-10-19T14:16:11.209Z,44.37
2018-10-19T14:18:38.920Z,47.30
2018-10-19T14:21:06.686Z,43.33
2018-10-19T14:23:34.336Z,45.13
2018-10-19T14:26:02.041Z,41.87
2018-10-19T14:28:29.705Z,45.90
2018-10-19T14:30:57.397Z,46.47
2018-10-19T14:33:25.166Z,42.77
2018-10-19T14:35:52.845Z,40.50
2018-10-19T14:38:20.509Z,44.23
2018-10-19T14:40:48.212Z,42.43
2018-10-19T14:43:15.905Z,40.63
2018-10-19T14:48:18.157Z,44.70
2018-10-19T14:50:45.817Z,43.50
2018-10-19T14:53:13.516Z,39.30
2018-10-19T14:55:41.276Z,45.53
2018-10-19T14:58:08.929Z,39.30
2018-10-19T15:00:36.641Z,40.47
2018-10-19T15:03:04.447Z,40.60
2018-10-19T15:05:32.128Z,39.93
2018-10-19T15:07:59.822Z,41.03
2018-10-19T15:10:27.627Z,40.00
2018-10-19T15:12:55.178Z,37.73
2018-10-19T15:15:23.335Z,40.20
2018-10-19T15:17:51.033Z,37.87
2018-10-19T15:20:18.937Z,37.30
2018-10-19T15:22:46.833Z,40.30
2018-10-19T15:25:14.746Z,37.17
2018-10-19T15:27:43.781Z,37.87
2018-10-19T15:30:13.004Z,38.93
2018-10-19T15:32:40.833Z,38.17
2018-10-19T15:35:09.044Z,36.00
2018-10-19T15:37:36.781Z,39.13
2018-10-19T15:40:04.996Z,37.80
2018-10-19T15:42:32.716Z,38.47
2018-10-19T15:45:00.489Z,35.73
2018-10-19T15:47:29.972Z,34.23
2018-10-19T15:49:58.009Z,38.43
2018-10-19T15:52:32.520Z,39.80
2018-10-19T15:55:00.235Z,45.43
2018-10-19T15:57:28.001Z,37.30
2018-10-19T15:59:55.754Z,35.60
2018-10-19T16:02:23.482Z,40.53
2018-10-19T16:04:51.217Z,44.47
2018-10-19T16:07:19.285Z,38.83
2018-10-19T16:09:47.474Z,36.93
2018-10-19T16:12:15.336Z,36.63
2018-10-19T16:14:42.912Z,37.70
2018-10-19T16:17:12.644Z,35.73
2018-10-19T16:19:40.881Z,35.53
2018-10-19T16:22:08.676Z,38.87
2018-10-19T16:24:36.430Z,40.70
2018-10-19T16:27:04.256Z,40.20
2018-10-19T16:29:31.922Z,37.83
2018-10-19T16:32:06.350Z,39.30
2018-10-19T16:34:34.041Z,37.73
2018-10-19T16:37:01.715Z,40.90
2018-10-19T16:39:29.416Z,42.57
2018-10-19T16:41:57.130Z,43.10
2018-10-19T16:44:24.814Z,55.00
2018-10-19T16:46:52.521Z,41.47
2018-10-19T16:49:20.174Z,41.73
2018-10-19T16:51:47.881Z,42.43
2018-10-19T16:54:15.709Z,48.17
2018-10-19T16:56:43.300Z,64.73
2018-10-19T16:59:11.062Z,67.60
2018-10-19T17:01:38.765Z,234.27
2018-10-19T17:04:06.740Z,244.53
2018-10-19T17:06:34.386Z,117.10
2018-10-19T17:09:02.146Z,140.13
2018-10-19T17:11:29.854Z,81.47
2018-10-19T17:13:57.534Z,74.70
2018-10-19T17:16:25.229Z,64.00
2018-10-19T17:18:52.911Z,185.93
2018-10-19T17:21:20.637Z,76.70
2018-10-19T17:23:48.362Z,67.80
2018-10-19T17:26:16.062Z,71.63
2018-10-19T17:28:43.772Z,66.90
2018-10-19T17:31:11.579Z,66.47
2018-10-19T17:33:39.272Z,67.30
2018-10-19T17:36:06.969Z,78.47
2018-10-19T17:38:34.592Z,68.00
2018-10-19T17:41:02.316Z,68.27
2018-10-19T17:43:30.079Z,73.40
2018-10-19T17:45:57.670Z,71.40
2018-10-19T17:48:25.356Z,70.10
2018-10-19T17:50:53.099Z,71.53
2018-10-19T17:53:20.802Z,73.33
2018-10-19T17:55:48.510Z,68.27
2018-10-19T17:58:16.162Z,74.70
2018-10-19T18:00:43.897Z,87.77
2018-10-19T18:03:11.621Z,73.63
2018-10-19T18:05:39.237Z,79.43
2018-10-19T18:08:06.933Z,84.23
2018-10-19T18:10:34.602Z,78.60
2018-10-19T18:13:02.370Z,71.10
2018-10-19T18:15:30.034Z,76.80
2018-10-19T18:17:57.684Z,82.87
2018-10-19T18:20:25.396Z,79.10
2018-10-19T18:22:53.260Z,74.47
2018-10-19T18:25:20.757Z,74.30
2018-10-19T18:27:48.478Z,72.03
2018-10-19T18:30:16.153Z,81.57
2018-10-19T18:32:43.798Z,76.97
2018-10-19T18:35:11.574Z,80.57
2018-10-19T18:37:39.646Z,75.53
2018-10-19T18:40:09.450Z,91.97
2018-10-19T18:42:37.168Z,87.73
2018-10-19T18:45:05.714Z,89.03
2018-10-19T18:47:33.444Z,97.77
2018-10-19T18:50:01.403Z,99.53
2018-10-19T18:52:29.235Z,81.20
2018-10-19T18:54:57.190Z,102.33
2018-10-19T18:57:24.987Z,87.93
2018-10-19T18:59:52.962Z,82.60
2018-10-19T19:02:20.805Z,81.47
2018-10-19T19:04:48.636Z,88.07
2018-10-19T19:07:16.423Z,86.70
2018-10-19T19:09:48.603Z,87.57
2018-10-19T19:12:16.445Z,82.30
2018-10-19T19:14:44.273Z,84.40
2018-10-19T19:17:12.016Z,92.60
2018-10-19T19:19:39.792Z,85.57
2018-10-19T19:22:07.473Z,82.33
2018-10-19T19:24:40.593Z,81.07
2018-10-19T19:27:08.292Z,97.53
2018-10-19T19:29:35.969Z,100.57
2018-10-19T19:32:03.765Z,86.23
2018-10-19T19:34:32.517Z,92.77
2018-10-19T19:37:00.210Z,92.00
2018-10-19T19:39:27.932Z,88.27
2018-10-19T19:42:59.830Z,99.17
2018-10-19T19:45:27.494Z,96.20
2018-10-19T19:48:00.641Z,87.40
2018-10-19T19:50:28.320Z,89.47
2018-10-19T19:52:56.085Z,79.27
2018-10-19T19:55:23.858Z,80.63
2018-10-19T19:57:51.521Z,81.07
2018-10-19T20:00:19.271Z,78.07
2018-10-19T20:02:46.964Z,84.47
2018-10-19T20:05:14.707Z,85.07
2018-10-19T20:07:42.362Z,80.60
2018-10-19T20:10:10.060Z,79.43
2018-10-19T20:12:37.939Z,82.90
2018-10-19T20:15:06.956Z,76.57
2018-10-19T20:17:34.718Z,80.83
2018-10-19T20:20:02.471Z,83.97
2018-10-19T20:22:30.154Z,82.33
2018-10-19T20:24:57.845Z,82.53
2018-10-19T20:27:25.560Z,85.13
2018-10-19T20:29:53.255Z,91.15
2018-10-19T20:32:21.127Z,83.42
2018-10-19T20:34:48.759Z,88.42
2018-10-19T20:37:16.518Z,81.53
2018-10-19T20:39:44.238Z,77.12
2018-10-19T20:42:11.958Z,89.58
2018-10-19T20:44:39.724Z,82.62
2018-10-19T20:47:07.497Z,94.17
2018-10-19T20:49:35.117Z,85.55
2018-10-19T20:52:02.855Z,90.32
2018-10-19T20:54:30.524Z,95.77
2018-10-19T20:56:58.280Z,92.95
2018-10-19T20:59:25.981Z,85.28
2018-10-19T21:01:53.835Z,88.83
2018-10-19T21:04:21.589Z,80.57
2018-10-19T21:06:49.378Z,85.20
2018-10-19T21:09:17.134Z,85.40
2018-10-19T21:11:44.898Z,88.47
2018-10-19T21:14:12.687Z,87.88
2018-10-19T21:16:40.310Z,84.28
2018-10-19T21:19:08.090Z,85.15
2018-10-19T21:21:35.765Z,88.60
2018-10-19T21:24:03.458Z,85.77
2018-10-19T21:26:31.158Z,95.30
2018-10-19T21:28:58.940Z,88.75
2018-10-19T21:31:26.587Z,85.00
2018-10-19T21:33:54.269Z,88.45
2018-10-19T21:36:21.972Z,81.92
2018-10-19T21:38:49.641Z,85.77
2018-10-19T21:41:17.316Z,81.55
2018-10-19T21:43:44.982Z,82.85
2018-10-19T21:46:12.658Z,83.65
2018-10-19T21:48:40.317Z,85.72
2018-10-19T21:51:07.989Z,90.10
2018-10-19T21:53:35.649Z,81.32
2018-10-19T21:56:03.406Z,89.37
2018-10-19T21:58:31.032Z,81.65
2018-10-19T22:00:58.696Z,90.92
2018-10-19T22:03:26.387Z,85.35
2018-10-19T22:05:54.053Z,83.17
2018-10-19T22:08:21.719Z,83.87
2018-10-19T22:10:49.396Z,88.50
2018-10-19T22:13:17.060Z,76.50
2018-10-19T22:15:44.724Z,82.65
2018-10-19T22:18:12.400Z,87.80
2018-10-19T22:20:40.049Z,85.85
2018-10-19T22:23:07.820Z,84.83
2018-10-19T22:25:35.428Z,90.15
2018-10-19T22:28:03.102Z,86.00
2018-10-19T22:30:30.756Z,85.45
2018-10-19T22:32:58.418Z,87.17
2018-10-19T22:35:26.097Z,91.22
2018-10-19T22:37:53.741Z,89.75
2018-10-19T22:40:21.433Z,74.90
2018-10-19T22:42:49.097Z,83.87
2018-10-19T22:45:16.761Z,76.20
2018-10-19T22:47:44.451Z,76.60
2018-10-19T22:50:12.093Z,75.65
2018-10-19T22:52:39.773Z,77.40
2018-10-19T22:55:07.548Z,72.95
2018-10-19T22:57:35.269Z,71.30
2018-10-19T23:00:02.999Z,66.02
2018-10-19T23:02:30.661Z,71.53
2018-10-19T23:04:58.383Z,73.83
2018-10-19T23:07:26.033Z,85.97
2018-10-19T23:09:53.698Z,87.05
2018-10-19T23:12:21.349Z,97.55
2018-10-19T23:14:49.042Z,93.50
2018-10-19T23:17:16.741Z,81.60
2018-10-19T23:19:44.399Z,91.40
2018-10-19T23:22:12.082Z,89.45
2018-10-19T23:24:39.761Z,94.52
2018-10-19T23:27:07.416Z,93.37
2018-10-19T23:29:35.090Z,93.65
2018-10-19T23:32:02.750Z,96.37
2018-10-19T23:34:30.496Z,108.78
2018-10-19T23:36:58.204Z,101.53
2018-10-19T23:39:25.852Z,96.47
2018-10-19T23:41:53.533Z,105.55
2018-10-19T23:44:21.201Z,105.55
2018-10-19T23:46:48.893Z,91.78
2018-10-19T23:49:16.614Z,84.00
2018-10-19T23:51:44.234Z,90.60
2018-10-19T23:54:11.921Z,82.33
2018-10-19T23:56:39.572Z,70.50
2018-10-19T23:59:07.225Z,71.70
